createdAt,value
2022-09-14T00:00:34.374Z,16.00
2022-09-14T00:03:05.512Z,16.00
2022-09-14T00:05:38.809Z,16.00
2022-09-14T00:08:10.015Z,16.00
2022-09-14T00:10:50.781Z,15.90
2022-09-14T00:13:22.443Z,16.00
2022-09-14T00:15:52.534Z,16.10
2022-09-14T00:18:27.529Z,16.00
2022-09-14T00:21:10.160Z,16.00
2022-09-14T00:23:42.178Z,16.00
2022-09-14T00:26:18.772Z,16.00
2022-09-14T00:28:56.318Z,16.00
2022-09-14T00:31:33.056Z,16.00
2022-09-14T00:34:03.299Z,16.00
2022-09-14T00:36:32.733Z,16.10
2022-09-14T00:39:03.092Z,16.10
2022-09-14T00:41:36.387Z,16.10
2022-09-14T00:44:29.765Z,16.10
2022-09-14T00:47:08.070Z,16.00
2022-09-14T00:49:45.558Z,16.00
2022-09-14T00:52:41.162Z,16.00
2022-09-14T00:55:15.649Z,15.90
2022-09-14T00:57:52.438Z,15.90
2022-09-14T01:00:28.393Z,15.90
2022-09-14T01:02:57.060Z,15.80
2022-09-14T01:06:07.371Z,15.70
2022-09-14T01:09:14.870Z,15.70
2022-09-14T01:12:05.876Z,15.70
2022-09-14T01:15:12.067Z,15.70
2022-09-14T01:18:00.948Z,15.70
2022-09-14T01:20:53.814Z,15.50
2022-09-14T01:24:06.443Z,15.60
2022-09-14T01:26:48.434Z,15.60
2022-09-14T01:29:30.583Z,15.60
2022-09-14T01:32:27.836Z,15.60
2022-09-14T01:35:04.508Z,15.50
2022-09-14T01:38:05.131Z,15.50
2022-09-14T01:40:50.740Z,15.50
2022-09-14T01:43:40.735Z,15.50
2022-09-14T01:46:19.418Z,15.50
2022-09-14T01:49:08.284Z,15.40
2022-09-14T01:51:58.827Z,15.50
2022-09-14T01:54:34.536Z,15.40
2022-09-14T01:57:14.279Z,15.40
2022-09-14T01:59:50.914Z,15.50
2022-09-14T02:02:57.351Z,15.50
2022-09-14T02:05:46.127Z,15.50
2022-09-14T02:08:14.642Z,15.50
2022-09-14T02:10:42.283Z,15.50
2022-09-14T02:13:11.484Z,15.50
2022-09-14T02:15:41.352Z,15.40
2022-09-14T02:18:11.520Z,15.40
2022-09-14T02:20:51.205Z,15.50
2022-09-14T02:23:19.815Z,15.50
2022-09-14T02:25:48.781Z,15.50
2022-09-14T02:28:19.215Z,15.50
2022-09-14T02:31:04.423Z,15.50
2022-09-14T02:33:59.570Z,15.50
2022-09-14T02:37:10.095Z,15.50
2022-09-14T02:40:09.037Z,15.50
2022-09-14T02:43:13.171Z,15.50
2022-09-14T02:46:04.793Z,15.50
2022-09-14T02:49:10.286Z,15.50
2022-09-14T02:52:04.064Z,15.50
2022-09-14T02:55:01.752Z,15.60
2022-09-14T02:57:31.941Z,15.60
2022-09-14T03:00:03.805Z,15.60
2022-09-14T03:02:35.350Z,15.60
2022-09-14T03:05:05.678Z,15.60
2022-09-14T03:07:35.119Z,15.60
2022-09-14T03:12:49.933Z,15.50
2022-09-14T03:15:19.038Z,15.50
2022-09-14T03:17:49.015Z,15.50
2022-09-14T03:20:21.651Z,15.50
2022-09-14T03:22:50.070Z,15.50
2022-09-14T03:25:21.878Z,15.40
2022-09-14T03:27:51.031Z,15.30
2022-09-14T03:30:21.856Z,15.40
2022-09-14T03:32:49.620Z,15.40
2022-09-14T03:35:20.302Z,15.40
2022-09-14T03:37:50.097Z,15.40
2022-09-14T03:40:22.096Z,15.40
2022-09-14T03:42:52.228Z,15.40
2022-09-14T03:45:22.067Z,15.40
2022-09-14T03:47:51.115Z,15.40
2022-09-14T03:50:22.296Z,15.40
2022-09-14T03:52:51.063Z,15.50
2022-09-14T03:55:21.867Z,15.50
2022-09-14T03:57:54.315Z,15.40
2022-09-14T04:00:28.300Z,15.40
2022-09-14T04:03:03.577Z,15.40
2022-09-14T04:05:36.931Z,15.50
2022-09-14T04:08:06.849Z,15.50
2022-09-14T04:10:37.041Z,15.50
2022-09-14T04:13:08.364Z,15.50
2022-09-14T04:15:36.280Z,15.50
2022-09-14T04:18:07.117Z,15.50
2022-09-14T04:20:37.934Z,15.50
2022-09-14T04:23:09.295Z,15.60
2022-09-14T04:25:39.592Z,15.60
2022-09-14T04:28:20.235Z,15.60
2022-09-14T04:31:02.901Z,15.60
2022-09-14T04:36:20.679Z,15.60
2022-09-14T04:38:55.926Z,15.60
2022-09-14T04:44:08.865Z,15.70
2022-09-14T04:46:45.815Z,15.70
2022-09-14T04:49:27.320Z,15.70
2022-09-14T04:51:56.214Z,15.70
2022-09-14T04:54:26.001Z,15.70
2022-09-14T04:56:57.965Z,15.70
2022-09-14T04:59:28.824Z,15.60
2022-09-14T05:01:57.662Z,15.60
2022-09-14T05:04:36.951Z,15.70
2022-09-14T05:07:09.767Z,15.70
2022-09-14T05:09:42.667Z,15.70
2022-09-14T05:12:11.062Z,15.80
2022-09-14T05:14:39.616Z,15.80
2022-09-14T05:17:07.752Z,15.80
2022-09-14T05:19:36.144Z,15.80
2022-09-14T05:22:09.143Z,15.80
2022-09-14T05:24:36.573Z,15.80
2022-09-14T05:27:07.121Z,15.90
2022-09-14T05:29:35.457Z,15.90
2022-09-14T05:34:52.140Z,15.90
2022-09-14T05:37:21.763Z,15.90
2022-09-14T05:39:52.439Z,16.00
2022-09-14T05:42:23.601Z,16.00
2022-09-14T05:44:53.605Z,16.00
2022-09-14T05:47:22.540Z,16.10
2022-09-14T05:49:51.961Z,16.10
2022-09-14T05:52:21.933Z,16.10
2022-09-14T05:54:51.443Z,16.10
2022-09-14T05:57:18.938Z,16.20
2022-09-14T05:59:51.649Z,16.20
2022-09-14T06:02:19.586Z,16.20
2022-09-14T06:04:48.892Z,16.20
2022-09-14T06:07:18.992Z,16.20
2022-09-14T06:09:49.182Z,16.20
2022-09-14T06:12:18.747Z,16.20
2022-09-14T06:14:49.977Z,16.30
2022-09-14T06:17:20.363Z,16.30
2022-09-14T06:19:51.011Z,16.30
2022-09-14T06:22:22.265Z,16.40
2022-09-14T06:24:51.361Z,16.40
2022-09-14T06:27:24.651Z,16.40
2022-09-14T06:29:57.611Z,16.50
2022-09-14T06:32:30.823Z,16.50
2022-09-14T06:35:03.085Z,16.50
2022-09-14T06:37:32.322Z,16.50
2022-09-14T06:42:46.882Z,16.50
2022-09-14T06:45:16.993Z,16.60
2022-09-14T06:47:45.846Z,16.60
2022-09-14T06:50:13.762Z,16.50
2022-09-14T06:52:51.801Z,16.60
2022-09-14T06:55:19.364Z,16.60
2022-09-14T06:57:49.002Z,16.60
2022-09-14T07:00:18.773Z,16.60
2022-09-14T07:05:32.268Z,16.70
2022-09-14T07:10:52.407Z,16.80
2022-09-14T07:13:20.805Z,16.70
2022-09-14T07:15:52.371Z,16.80
2022-09-14T07:18:23.351Z,16.80
2022-09-14T07:20:54.663Z,16.80
2022-09-14T07:23:23.313Z,16.90
2022-09-14T07:26:05.727Z,17.00
2022-09-14T07:28:33.956Z,17.00
2022-09-14T07:31:05.694Z,17.10
2022-09-14T07:33:38.601Z,17.20
2022-09-14T07:36:08.215Z,17.20
2022-09-14T07:38:52.194Z,17.40
2022-09-14T07:41:29.212Z,17.50
2022-09-14T07:44:08.595Z,17.70
2022-09-14T07:46:41.602Z,17.80
2022-09-14T07:51:58.002Z,18.00
2022-09-14T07:54:28.805Z,18.10
2022-09-14T07:57:05.172Z,18.00
2022-09-14T07:59:37.685Z,18.10
2022-09-14T08:02:12.618Z,18.20
2022-09-14T08:04:52.453Z,18.30
2022-09-14T08:07:23.075Z,18.50
2022-09-14T08:09:52.441Z,18.70
2022-09-14T08:12:21.085Z,18.80
2022-09-14T08:14:48.912Z,18.80
2022-09-14T08:17:19.586Z,18.80
2022-09-14T08:19:48.553Z,18.90
2022-09-14T08:22:18.105Z,19.00
2022-09-14T08:24:50.474Z,19.10
2022-09-14T08:27:20.171Z,19.20
2022-09-14T08:29:49.360Z,19.20
2022-09-14T08:32:18.799Z,19.20
2022-09-14T08:34:48.771Z,19.30
2022-09-14T08:37:19.510Z,19.40
2022-09-14T08:39:51.368Z,19.40
2022-09-14T08:42:25.843Z,19.40
2022-09-14T08:45:06.336Z,19.50
2022-09-14T08:47:41.717Z,19.50
2022-09-14T08:50:12.884Z,19.60
2022-09-14T08:52:54.422Z,19.60
2022-09-14T08:55:29.310Z,19.70
2022-09-14T08:58:32.034Z,19.80
2022-09-14T09:01:23.201Z,19.90
2022-09-14T09:04:06.834Z,19.90
2022-09-14T09:07:07.984Z,20.00
2022-09-14T09:09:48.920Z,20.00
2022-09-14T09:12:18.605Z,20.00
2022-09-14T09:15:30.858Z,20.20
2022-09-14T09:18:08.093Z,20.20
2022-09-14T09:20:44.884Z,20.20
2022-09-14T09:23:24.378Z,20.30
2022-09-14T09:26:11.892Z,20.40
2022-09-14T09:28:46.449Z,20.40
2022-09-14T09:34:32.638Z,20.40
2022-09-14T09:37:23.882Z,20.40
2022-09-14T09:39:52.404Z,20.50
2022-09-14T09:42:28.829Z,20.60
2022-09-14T09:45:12.620Z,20.50
2022-09-14T09:50:26.723Z,20.50
2022-09-14T09:53:05.996Z,20.50
2022-09-14T09:55:38.901Z,20.60
2022-09-14T09:58:36.306Z,20.70
2022-09-14T10:01:20.493Z,20.70
2022-09-14T10:04:01.564Z,20.80
2022-09-14T10:06:29.998Z,20.90
2022-09-14T10:09:02.710Z,20.80
2022-09-14T10:11:45.154Z,20.80
2022-09-14T10:14:53.163Z,20.80
2022-09-14T10:17:23.578Z,20.80
2022-09-14T10:19:54.002Z,20.70
2022-09-14T10:22:35.022Z,20.70
2022-09-14T10:25:15.221Z,20.70
2022-09-14T10:28:01.117Z,20.60
2022-09-14T10:31:13.441Z,20.50
2022-09-14T10:33:42.722Z,20.50
2022-09-14T10:36:32.610Z,20.40
2022-09-14T10:39:32.509Z,20.40
2022-09-14T10:43:01.103Z,20.40
2022-09-14T10:46:09.805Z,20.30
2022-09-14T10:49:05.320Z,20.30
2022-09-14T10:51:45.081Z,20.30
2022-09-14T10:54:29.561Z,20.40
2022-09-14T10:57:09.387Z,20.40
2022-09-14T11:00:10.250Z,20.50
2022-09-14T11:03:08.911Z,20.50
2022-09-14T11:06:14.030Z,20.50
2022-09-14T11:08:52.909Z,20.50
2022-09-14T11:12:01.963Z,20.50
2022-09-14T11:15:11.481Z,20.50
2022-09-14T11:18:13.109Z,20.50
2022-09-14T11:21:23.447Z,20.50
2022-09-14T11:24:14.713Z,20.50
2022-09-14T11:27:08.322Z,20.50
2022-09-14T11:29:56.334Z,20.60
2022-09-14T11:32:50.124Z,20.70
2022-09-14T11:35:38.635Z,20.70
2022-09-14T11:38:17.899Z,20.80
2022-09-14T11:41:20.185Z,20.80
2022-09-14T11:43:58.579Z,20.90
2022-09-14T11:46:41.848Z,21.00
2022-09-14T11:52:33.904Z,21.10
2022-09-14T11:55:05.337Z,21.20
2022-09-14T11:57:34.501Z,21.20
2022-09-14T12:00:36.369Z,21.30
2022-09-14T12:03:46.454Z,21.40
2022-09-14T12:06:36.540Z,21.50
2022-09-14T12:09:27.157Z,21.50
2022-09-14T12:11:58.852Z,21.60
2022-09-14T12:14:41.527Z,21.80
2022-09-14T12:17:46.201Z,21.90
2022-09-14T12:20:55.586Z,22.00
2022-09-14T12:23:54.161Z,21.90
2022-09-14T12:26:29.774Z,22.00
2022-09-14T12:29:05.268Z,22.10
2022-09-14T12:32:03.934Z,22.40
2022-09-14T12:34:36.506Z,22.80
2022-09-14T12:37:26.215Z,23.00
2022-09-14T12:40:36.820Z,23.00
2022-09-14T12:43:35.584Z,23.30
2022-09-14T12:46:05.107Z,23.40
2022-09-14T12:48:58.605Z,23.50
2022-09-14T12:51:31.246Z,23.50
2022-09-14T12:54:09.217Z,23.40
2022-09-14T12:57:02.416Z,23.10
2022-09-14T13:00:28.831Z,23.20
2022-09-14T13:03:14.205Z,23.40
2022-09-14T13:05:45.131Z,23.60
2022-09-14T13:08:25.212Z,23.60
2022-09-14T13:10:53.743Z,23.60
2022-09-14T13:13:32.926Z,23.60
2022-09-14T13:16:06.682Z,23.50
2022-09-14T13:18:40.970Z,23.60
2022-09-14T13:21:27.219Z,23.80
2022-09-14T13:23:55.421Z,24.00
2022-09-14T13:29:14.796Z,24.00
2022-09-14T13:31:48.049Z,24.10
2022-09-14T13:34:39.432Z,24.00
2022-09-14T13:37:12.804Z,24.00
2022-09-14T13:39:53.329Z,24.00
2022-09-14T13:42:24.913Z,23.90
2022-09-14T13:44:56.230Z,23.90
2022-09-14T13:47:26.464Z,23.90
2022-09-14T13:49:57.960Z,23.80
2022-09-14T13:52:49.627Z,23.60
2022-09-14T13:55:21.850Z,23.50
2022-09-14T13:58:26.935Z,23.50
2022-09-14T14:00:57.746Z,23.40
2022-09-14T14:04:07.212Z,23.40
2022-09-14T14:06:39.826Z,23.40
2022-09-14T14:09:11.806Z,23.30
2022-09-14T14:11:57.435Z,23.30
2022-09-14T14:14:31.515Z,23.50
2022-09-14T14:17:25.912Z,23.70
2022-09-14T14:20:02.131Z,23.90
2022-09-14T14:22:35.924Z,24.40
2022-09-14T14:25:19.727Z,24.70
2022-09-14T14:27:49.531Z,25.00
2022-09-14T14:30:23.582Z,25.20
2022-09-14T14:32:59.015Z,25.30
2022-09-14T14:35:30.089Z,25.70
2022-09-14T14:38:03.632Z,25.90
2022-09-14T14:40:33.299Z,25.90
2022-09-14T14:43:11.937Z,25.90
2022-09-14T14:45:39.724Z,25.80
2022-09-14T14:48:14.681Z,25.90
2022-09-14T14:50:44.977Z,25.90
2022-09-14T14:53:13.703Z,25.80
2022-09-14T14:55:44.682Z,25.80
2022-09-14T14:58:17.362Z,25.70
2022-09-14T15:00:48.272Z,25.50
2022-09-14T15:03:19.857Z,25.20
2022-09-14T15:08:31.771Z,24.90
2022-09-14T15:11:00.074Z,24.60
2022-09-14T15:13:30.791Z,24.40
2022-09-14T15:16:02.647Z,24.30
2022-09-14T15:21:17.819Z,24.30
2022-09-14T15:23:57.819Z,24.10
2022-09-14T15:26:31.045Z,24.10
2022-09-14T15:29:10.005Z,24.00
2022-09-14T15:31:52.492Z,23.80
2022-09-14T15:37:06.471Z,23.70
2022-09-14T15:39:35.388Z,23.80
2022-09-14T15:42:05.690Z,23.60
2022-09-14T15:44:33.188Z,23.50
2022-09-14T15:47:03.736Z,23.40
2022-09-14T15:49:34.010Z,23.40
2022-09-14T15:52:02.952Z,23.40
2022-09-14T15:54:39.890Z,23.40
2022-09-14T15:57:14.073Z,23.30
2022-09-14T15:59:45.912Z,23.30
2022-09-14T16:02:13.573Z,23.20
2022-09-14T16:04:44.795Z,23.20
2022-09-14T16:07:15.280Z,23.10
2022-09-14T16:09:43.781Z,23.00
2022-09-14T16:12:13.528Z,22.90
2022-09-14T16:14:44.887Z,22.90
2022-09-14T16:17:12.583Z,22.80
2022-09-14T16:19:44.578Z,22.80
2022-09-14T16:22:12.886Z,22.70
2022-09-14T16:27:27.665Z,22.60
2022-09-14T16:29:59.868Z,22.60
2022-09-14T16:32:31.282Z,22.60
2022-09-14T16:35:04.661Z,22.70
2022-09-14T16:37:35.286Z,22.70
2022-09-14T16:40:05.805Z,22.80
2022-09-14T16:42:36.367Z,22.80
2022-09-14T16:45:04.288Z,22.80
2022-09-14T16:47:35.433Z,22.80
2022-09-14T16:50:15.186Z,22.70
2022-09-14T16:52:45.745Z,22.70
2022-09-14T16:55:21.859Z,22.50
2022-09-14T16:57:51.034Z,22.50
2022-09-14T17:00:18.574Z,22.50
2022-09-14T17:02:52.087Z,22.50
2022-09-14T17:05:20.796Z,22.60
2022-09-14T17:07:48.397Z,22.60
2022-09-14T17:10:20.127Z,22.50
2022-09-14T17:12:50.971Z,22.50
2022-09-14T17:15:21.175Z,22.30
2022-09-14T17:17:51.722Z,22.20
2022-09-14T17:20:23.333Z,22.10
2022-09-14T17:22:52.815Z,22.00
2022-09-14T17:25:21.934Z,21.90
2022-09-14T17:27:52.808Z,21.80
2022-09-14T17:33:04.566Z,21.60
2022-09-14T17:35:33.387Z,21.60
2022-09-14T17:38:04.794Z,21.50
2022-09-14T17:40:33.515Z,21.50
2022-09-14T17:43:01.593Z,21.50
2022-09-14T17:45:34.065Z,21.30
2022-09-14T17:48:03.172Z,21.30
2022-09-14T17:50:33.046Z,21.30
2022-09-14T17:53:01.582Z,21.20
2022-09-14T17:55:32.883Z,21.20
2022-09-14T17:58:02.067Z,21.20
2022-09-14T18:00:33.286Z,21.20
2022-09-14T18:03:03.129Z,21.20
2022-09-14T18:05:33.696Z,21.10
2022-09-14T18:08:04.547Z,21.00
2022-09-14T18:10:35.760Z,21.00
2022-09-14T18:13:06.614Z,21.00
2022-09-14T18:15:40.371Z,20.90
2022-09-14T18:18:11.769Z,20.90
2022-09-14T18:20:43.624Z,20.80
2022-09-14T18:23:14.456Z,20.80
2022-09-14T18:25:44.470Z,20.80
2022-09-14T18:28:14.212Z,20.80
2022-09-14T18:30:43.922Z,20.80
2022-09-14T18:33:15.475Z,20.80
2022-09-14T18:35:59.831Z,20.80
2022-09-14T18:38:39.145Z,20.70
2022-09-14T18:41:22.248Z,20.70
2022-09-14T18:44:02.115Z,20.60
2022-09-14T18:46:31.468Z,20.60
2022-09-14T18:49:06.734Z,20.70
2022-09-14T18:51:37.313Z,20.60
2022-09-14T18:56:51.717Z,20.60
2022-09-14T18:59:20.533Z,20.60
2022-09-14T19:01:50.427Z,20.60
2022-09-14T19:07:06.049Z,20.50
2022-09-14T19:09:36.211Z,20.50
2022-09-14T19:12:16.538Z,20.50
2022-09-14T19:14:47.872Z,20.50
2022-09-14T19:17:19.281Z,20.50
2022-09-14T19:19:49.342Z,20.50
2022-09-14T19:22:24.583Z,20.50
2022-09-14T19:24:54.606Z,20.50
2022-09-14T19:27:26.224Z,20.50
2022-09-14T19:29:57.045Z,20.40
2022-09-14T19:32:25.735Z,20.30
2022-09-14T19:37:42.802Z,20.20
2022-09-14T19:40:12.624Z,20.10
2022-09-14T19:42:41.683Z,20.00
2022-09-14T19:45:12.614Z,20.00
2022-09-14T19:47:43.219Z,20.00
2022-09-14T19:50:14.488Z,19.90
2022-09-14T19:52:45.530Z,19.90
2022-09-14T19:55:13.643Z,19.90
2022-09-14T19:57:41.761Z,19.90
2022-09-14T20:00:18.158Z,19.80
2022-09-14T20:02:49.504Z,19.90
2022-09-14T20:05:17.758Z,19.80
2022-09-14T20:07:45.662Z,19.80
2022-09-14T20:10:15.166Z,19.80
2022-09-14T20:12:44.778Z,19.70
2022-09-14T20:15:18.520Z,19.70
2022-09-14T20:17:50.667Z,19.70
2022-09-14T20:20:19.832Z,19.70
2022-09-14T20:22:50.652Z,19.70
2022-09-14T20:25:22.669Z,19.70
2022-09-14T20:27:51.367Z,19.70
2022-09-14T20:33:02.114Z,19.60
2022-09-14T20:35:29.558Z,19.50
2022-09-14T20:37:58.049Z,19.50
2022-09-14T20:40:29.404Z,19.60
2022-09-14T20:43:01.511Z,19.60
2022-09-14T20:45:29.766Z,19.50
2022-09-14T20:48:02.579Z,19.50
2022-09-14T20:50:35.698Z,19.50
2022-09-14T20:53:05.390Z,19.50
2022-09-14T20:55:34.885Z,19.50
2022-09-14T20:58:05.196Z,19.60
2022-09-14T21:00:34.884Z,19.50
2022-09-14T21:03:04.935Z,19.50
2022-09-14T21:05:32.510Z,19.40
2022-09-14T21:08:04.084Z,19.40
2022-09-14T21:10:32.517Z,19.30
2022-09-14T21:13:00.953Z,19.30
2022-09-14T21:15:34.142Z,19.40
2022-09-14T21:18:01.993Z,19.40
2022-09-14T21:20:29.639Z,19.30
2022-09-14T21:22:58.658Z,19.30
2022-09-14T21:25:26.914Z,19.30
2022-09-14T21:27:59.060Z,19.20
2022-09-14T21:30:26.621Z,19.30
2022-09-14T21:32:54.253Z,19.20
2022-09-14T21:35:22.882Z,19.20
2022-09-14T21:37:51.811Z,19.20
2022-09-14T21:40:21.155Z,19.10
2022-09-14T21:42:49.306Z,19.10
2022-09-14T21:45:17.583Z,19.10
2022-09-14T21:47:45.602Z,19.10
2022-09-14T21:50:13.223Z,19.10
2022-09-14T21:52:46.144Z,19.00
2022-09-14T21:55:17.691Z,19.00
2022-09-14T21:57:56.025Z,19.00
2022-09-14T22:00:30.662Z,18.90
2022-09-14T22:03:01.079Z,18.90
2022-09-14T22:05:31.948Z,18.90
2022-09-14T22:08:03.298Z,18.90
2022-09-14T22:10:44.920Z,18.90
2022-09-14T22:13:15.966Z,18.90
2022-09-14T22:18:41.884Z,18.80
2022-09-14T22:21:11.370Z,18.80
2022-09-14T22:23:40.776Z,18.80
2022-09-14T22:28:56.348Z,18.80
2022-09-14T22:31:26.645Z,18.80
2022-09-14T22:34:04.410Z,18.80
2022-09-14T22:36:36.787Z,18.80
2022-09-14T22:39:05.823Z,18.80
2022-09-14T22:44:18.433Z,18.70
2022-09-14T22:46:49.122Z,18.70
2022-09-14T22:49:27.884Z,18.70
2022-09-14T22:51:56.330Z,18.70
2022-09-14T22:54:24.721Z,18.60
2022-09-14T22:56:55.507Z,18.60
2022-09-14T22:59:23.440Z,18.60
2022-09-14T23:01:54.289Z,18.60
2022-09-14T23:04:23.084Z,18.70
2022-09-14T23:06:52.878Z,18.60
2022-09-14T23:09:22.332Z,18.60
2022-09-14T23:11:53.771Z,18.70
2022-09-14T23:14:27.443Z,18.70
2022-09-14T23:17:00.458Z,18.70
2022-09-14T23:19:31.057Z,18.70
2022-09-14T23:22:02.131Z,18.70
2022-09-14T23:27:16.908Z,18.70
2022-09-14T23:29:46.192Z,18.70
2022-09-14T23:32:17.565Z,18.70
2022-09-14T23:34:47.701Z,18.60
2022-09-14T23:37:16.416Z,18.70
2022-09-14T23:39:47.150Z,18.70
2022-09-14T23:42:16.442Z,18.70
2022-09-14T23:44:46.014Z,18.70
2022-09-14T23:47:16.934Z,18.70
2022-09-14T23:49:44.532Z,18.70
2022-09-14T23:52:14.023Z,18.70
2022-09-14T23:54:45.782Z,18.70
2022-09-14T23:57:13.496Z,18.70
